createdAt,value
2019-02-21T00:01:35.342Z,6.17
2019-02-21T00:04:04.399Z,6.11
2019-02-21T00:06:32.950Z,6.03
2019-02-21T00:09:01.616Z,5.94
2019-02-21T00:11:30.259Z,5.88
2019-02-21T00:13:58.761Z,5.85
2019-02-21T00:16:27.674Z,5.81
2019-02-21T00:18:56.137Z,5.76
2019-02-21T00:21:24.688Z,5.72
2019-02-21T00:23:53.204Z,5.66
2019-02-21T00:26:21.859Z,5.58
2019-02-21T00:28:50.346Z,5.48
2019-02-21T00:31:18.949Z,5.41
2019-02-21T00:33:47.444Z,5.32
2019-02-21T00:36:16.050Z,5.22
2019-02-21T00:38:44.689Z,5.12
2019-02-21T00:41:13.209Z,5.07
2019-02-21T00:43:41.907Z,5.10
2019-02-21T00:46:10.519Z,5.10
2019-02-21T00:48:39.052Z,5.03
2019-02-21T00:51:07.553Z,4.92
2019-02-21T00:53:36.032Z,4.78
2019-02-21T00:56:04.557Z,4.64
2019-02-21T00:58:33.445Z,4.48
2019-02-21T01:01:01.927Z,4.34
2019-02-21T01:03:30.377Z,4.20
2019-02-21T01:05:58.949Z,4.05
2019-02-21T01:08:27.467Z,3.91
2019-02-21T01:10:55.948Z,3.80
2019-02-21T01:13:24.406Z,3.69
2019-02-21T01:15:52.880Z,3.59
2019-02-21T01:18:21.522Z,3.46
2019-02-21T01:20:49.978Z,3.41
2019-02-21T01:23:18.431Z,3.34
2019-02-21T01:25:46.903Z,3.28
2019-02-21T01:28:15.440Z,3.21
2019-02-21T01:30:44.002Z,3.15
2019-02-21T01:33:12.550Z,3.08
2019-02-21T01:35:41.044Z,3.01
2019-02-21T01:38:09.520Z,2.94
2019-02-21T01:40:38.145Z,2.90
2019-02-21T01:43:06.709Z,2.85
2019-02-21T01:45:35.380Z,2.81
2019-02-21T01:48:04.075Z,2.75
2019-02-21T01:50:32.631Z,2.70
2019-02-21T01:53:01.382Z,2.66
2019-02-21T01:55:29.860Z,2.67
2019-02-21T01:57:58.308Z,2.64
2019-02-21T02:00:27.066Z,2.60
2019-02-21T02:02:55.614Z,2.56
2019-02-21T02:05:24.133Z,2.54
2019-02-21T02:07:52.651Z,2.52
2019-02-21T02:10:21.249Z,2.49
2019-02-21T02:12:49.711Z,2.46
2019-02-21T02:15:18.381Z,2.44
2019-02-21T02:17:46.945Z,2.42
2019-02-21T02:20:15.428Z,2.38
2019-02-21T02:22:44.118Z,2.36
2019-02-21T02:25:12.632Z,2.33
2019-02-21T02:27:41.080Z,2.30
2019-02-21T02:30:10.758Z,2.28
2019-02-21T02:32:39.226Z,2.28
2019-02-21T02:35:08.035Z,2.31
2019-02-21T02:37:36.844Z,2.35
2019-02-21T02:40:06.375Z,2.38
2019-02-21T02:42:34.906Z,2.43
2019-02-21T02:45:03.515Z,2.49
2019-02-21T02:47:32.062Z,2.54
2019-02-21T02:50:00.617Z,2.62
2019-02-21T02:52:29.100Z,2.72
2019-02-21T02:54:57.553Z,2.85
2019-02-21T02:57:26.017Z,3.03
2019-02-21T02:59:54.688Z,3.17
2019-02-21T03:02:23.165Z,3.33
2019-02-21T03:04:51.683Z,3.45
2019-02-21T03:07:20.186Z,3.57
2019-02-21T03:09:48.732Z,3.71
2019-02-21T03:12:17.211Z,3.86
2019-02-21T03:14:45.705Z,3.98
2019-02-21T03:17:14.382Z,4.04
2019-02-21T03:19:42.875Z,4.08
2019-02-21T03:22:11.511Z,4.12
2019-02-21T03:24:40.029Z,4.14
2019-02-21T03:27:08.484Z,4.15
2019-02-21T03:29:37.059Z,4.15
2019-02-21T03:32:05.525Z,4.15
2019-02-21T03:34:33.982Z,4.16
2019-02-21T03:37:02.516Z,4.17
2019-02-21T03:39:31.043Z,4.17
2019-02-21T03:41:59.574Z,4.21
2019-02-21T03:44:28.110Z,4.21
2019-02-21T03:46:56.586Z,4.24
2019-02-21T03:49:25.143Z,4.28
2019-02-21T03:51:53.665Z,4.33
2019-02-21T03:54:22.204Z,4.36
2019-02-21T03:56:50.764Z,4.44
2019-02-21T03:59:19.480Z,4.52
2019-02-21T04:01:48.099Z,4.56
2019-02-21T04:04:16.654Z,4.53
2019-02-21T04:06:45.289Z,4.49
2019-02-21T04:09:13.765Z,4.44
2019-02-21T04:11:42.289Z,4.36
2019-02-21T04:14:10.963Z,4.31
2019-02-21T04:16:39.585Z,4.22
2019-02-21T04:19:08.170Z,4.13
2019-02-21T04:21:36.702Z,4.04
2019-02-21T04:24:05.390Z,3.93
2019-02-21T04:26:33.919Z,3.82
2019-02-21T04:29:02.452Z,3.73
2019-02-21T04:31:30.938Z,3.63
2019-02-21T04:33:59.388Z,3.52
2019-02-21T04:36:27.944Z,3.46
2019-02-21T04:38:56.482Z,3.38
2019-02-21T04:41:25.096Z,3.36
2019-02-21T04:43:53.573Z,3.31
2019-02-21T04:46:22.095Z,3.25
2019-02-21T04:48:50.605Z,3.20
2019-02-21T04:51:19.073Z,3.17
2019-02-21T04:53:48.233Z,3.19
2019-02-21T04:56:16.693Z,3.26
2019-02-21T04:58:45.172Z,3.34
2019-02-21T05:01:13.736Z,3.44
2019-02-21T05:03:42.188Z,3.51
2019-02-21T05:06:10.796Z,3.54
2019-02-21T05:08:39.293Z,3.57
2019-02-21T05:11:07.750Z,3.58
2019-02-21T05:13:36.235Z,3.57
2019-02-21T05:16:04.768Z,3.53
2019-02-21T05:18:33.397Z,3.48
2019-02-21T05:21:01.916Z,3.44
2019-02-21T05:23:30.393Z,3.40
2019-02-21T05:25:58.847Z,3.37
2019-02-21T05:28:29.644Z,3.32
2019-02-21T05:30:59.749Z,3.28
2019-02-21T05:33:35.988Z,3.23
2019-02-21T05:36:09.277Z,3.20
2019-02-21T05:38:42.450Z,3.15
2019-02-21T05:41:21.834Z,3.10
2019-02-21T05:44:08.486Z,3.04
2019-02-21T05:46:57.058Z,2.98
2019-02-21T05:49:29.907Z,2.91
2019-02-21T05:52:00.219Z,2.84
2019-02-21T05:54:30.321Z,2.77
2019-02-21T05:57:15.974Z,2.66
2019-02-21T05:59:57.903Z,2.65
2019-02-21T06:02:53.173Z,2.58
2019-02-21T06:05:16.290Z,2.53
2019-02-21T06:08:02.712Z,2.47
2019-02-21T06:10:38.718Z,2.39
2019-02-21T06:13:17.581Z,2.35
2019-02-21T06:15:47.750Z,2.30
2019-02-21T06:18:32.840Z,2.27
2019-02-21T06:21:08.659Z,2.27
2019-02-21T06:23:50.624Z,2.25
2019-02-21T06:26:23.823Z,2.22
2019-02-21T06:28:54.011Z,2.20
2019-02-21T06:31:22.556Z,2.18
2019-02-21T06:33:51.084Z,2.25
2019-02-21T06:36:19.577Z,2.35
2019-02-21T06:38:48.125Z,2.43
2019-02-21T06:41:16.588Z,2.51
2019-02-21T06:43:45.057Z,2.58
2019-02-21T06:46:13.993Z,2.66
2019-02-21T06:48:42.532Z,2.74
2019-02-21T06:51:11.150Z,2.83
2019-02-21T06:53:39.735Z,2.95
2019-02-21T06:56:08.382Z,3.06
2019-02-21T06:58:37.275Z,3.09
2019-02-21T07:01:05.758Z,3.11
2019-02-21T07:03:34.579Z,3.14
2019-02-21T07:06:03.088Z,3.20
2019-02-21T07:08:31.540Z,3.20
2019-02-21T07:11:06.323Z,3.25
2019-02-21T07:13:30.217Z,3.30
2019-02-21T07:15:58.749Z,3.38
2019-02-21T07:18:28.924Z,3.44
2019-02-21T07:20:57.673Z,3.53
2019-02-21T07:23:27.208Z,3.61
2019-02-21T07:25:57.080Z,3.71
2019-02-21T07:28:27.739Z,3.79
2019-02-21T07:30:55.825Z,3.87
2019-02-21T07:33:28.291Z,3.97
2019-02-21T07:35:54.937Z,4.05
2019-02-21T07:38:23.885Z,4.12
2019-02-21T07:40:52.423Z,4.30
2019-02-21T07:43:20.913Z,4.50
2019-02-21T07:45:49.380Z,4.71
2019-02-21T07:48:17.884Z,5.00
2019-02-21T07:50:46.406Z,5.33
2019-02-21T07:53:15.072Z,5.70
2019-02-21T07:55:43.703Z,6.03
2019-02-21T07:58:12.184Z,6.36
2019-02-21T08:00:40.705Z,6.69
2019-02-21T08:03:09.384Z,7.16
2019-02-21T08:05:37.984Z,7.69
2019-02-21T08:08:09.199Z,8.20
2019-02-21T08:10:36.904Z,8.37
2019-02-21T08:13:05.569Z,8.40
2019-02-21T08:15:34.110Z,8.39
2019-02-21T08:18:02.596Z,8.32
2019-02-21T08:20:35.508Z,8.27
2019-02-21T08:23:03.048Z,8.36
2019-02-21T08:25:31.952Z,8.37
2019-02-21T08:28:00.752Z,8.33
2019-02-21T08:30:29.666Z,8.27
2019-02-21T08:33:08.735Z,8.21
2019-02-21T08:35:37.372Z,8.16
2019-02-21T08:38:06.266Z,8.10
2019-02-21T08:40:34.790Z,8.10
2019-02-21T08:43:04.166Z,8.12
2019-02-21T08:45:33.091Z,8.11
2019-02-21T08:48:01.567Z,8.16
2019-02-21T08:50:30.181Z,8.18
2019-02-21T08:53:00.921Z,8.22
2019-02-21T08:55:28.960Z,8.24
2019-02-21T08:57:57.744Z,8.26
2019-02-21T09:00:26.371Z,8.28
2019-02-21T09:02:54.989Z,8.29
2019-02-21T09:05:23.903Z,8.34
2019-02-21T09:07:52.511Z,8.39
2019-02-21T09:10:21.072Z,8.54
2019-02-21T09:12:49.549Z,8.73
2019-02-21T09:15:18.058Z,9.01
2019-02-21T09:17:46.594Z,9.28
2019-02-21T09:20:15.853Z,9.44
2019-02-21T09:22:44.369Z,9.49
2019-02-21T09:25:13.984Z,9.47
2019-02-21T09:27:42.727Z,9.48
2019-02-21T09:30:18.730Z,9.53
2019-02-21T09:32:47.417Z,9.67
2019-02-21T09:35:15.974Z,9.79
2019-02-21T09:37:44.923Z,9.82
2019-02-21T09:40:14.856Z,9.83
2019-02-21T09:42:43.434Z,9.82
2019-02-21T09:45:19.158Z,9.79
2019-02-21T09:47:47.840Z,9.81
2019-02-21T09:50:16.323Z,9.89
2019-02-21T09:52:44.902Z,10.01
2019-02-21T09:55:18.167Z,10.17
2019-02-21T09:57:46.818Z,10.39
2019-02-21T10:00:19.774Z,10.57
2019-02-21T10:02:48.292Z,10.60
2019-02-21T10:05:17.023Z,10.59
2019-02-21T10:07:45.481Z,10.51
2019-02-21T10:10:15.801Z,10.44
2019-02-21T10:12:44.427Z,10.30
2019-02-21T10:15:16.879Z,10.20
2019-02-21T10:17:45.467Z,10.11
2019-02-21T10:20:17.067Z,10.05
2019-02-21T10:22:45.597Z,10.07
2019-02-21T10:25:22.943Z,10.13
2019-02-21T10:27:50.575Z,10.28
2019-02-21T10:30:21.002Z,10.62
2019-02-21T10:32:49.590Z,11.02
2019-02-21T10:35:18.268Z,11.38
2019-02-21T10:37:46.902Z,11.68
2019-02-21T10:40:16.393Z,11.90
2019-02-21T10:42:44.944Z,11.94
2019-02-21T10:45:15.419Z,11.84
2019-02-21T10:47:44.082Z,11.76
2019-02-21T10:50:15.597Z,11.74
2019-02-21T10:52:44.250Z,12.13
2019-02-21T10:55:13.486Z,12.62
2019-02-21T10:57:42.257Z,12.90
2019-02-21T11:00:17.073Z,13.35
2019-02-21T11:02:45.893Z,13.86
2019-02-21T11:05:14.504Z,13.89
2019-02-21T11:07:42.991Z,13.69
2019-02-21T11:10:13.819Z,13.46
2019-02-21T11:12:42.411Z,13.28
2019-02-21T11:15:13.516Z,13.23
2019-02-21T11:17:42.005Z,13.21
2019-02-21T11:20:13.172Z,13.16
2019-02-21T11:22:41.682Z,13.05
2019-02-21T11:25:11.827Z,12.86
2019-02-21T11:27:40.563Z,12.74
2019-02-21T11:30:17.610Z,12.65
2019-02-21T11:32:46.344Z,12.68
2019-02-21T11:35:15.299Z,12.75
2019-02-21T11:37:46.815Z,12.88
2019-02-21T11:40:18.134Z,13.02
2019-02-21T11:42:47.417Z,13.10
2019-02-21T11:45:17.516Z,12.99
2019-02-21T11:47:46.129Z,12.89
2019-02-21T11:50:16.625Z,12.90
2019-02-21T11:52:45.437Z,12.93
2019-02-21T11:55:16.964Z,12.96
2019-02-21T11:57:45.729Z,12.96
2019-02-21T12:00:20.281Z,13.03
2019-02-21T12:02:48.881Z,13.35
2019-02-21T12:05:27.888Z,13.76
2019-02-21T12:07:48.107Z,13.87
2019-02-21T12:10:17.200Z,14.09
2019-02-21T12:12:46.206Z,14.31
2019-02-21T12:15:16.010Z,14.52
2019-02-21T12:17:44.557Z,14.53
2019-02-21T12:20:17.877Z,14.32
2019-02-21T12:22:46.430Z,14.20
2019-02-21T12:25:20.932Z,14.17
2019-02-21T12:27:49.385Z,14.12
2019-02-21T12:30:21.718Z,14.06
2019-02-21T12:32:50.248Z,14.01
2019-02-21T12:35:29.290Z,13.92
2019-02-21T12:37:49.369Z,13.96
2019-02-21T12:40:20.413Z,14.02
2019-02-21T12:42:49.024Z,14.06
2019-02-21T12:45:22.317Z,14.08
2019-02-21T12:47:53.763Z,14.07
2019-02-21T12:50:21.475Z,13.97
2019-02-21T12:52:50.126Z,13.78
2019-02-21T12:55:27.266Z,13.76
2019-02-21T12:57:48.924Z,13.80
2019-02-21T13:00:22.388Z,13.84
2019-02-21T13:02:50.858Z,13.84
2019-02-21T13:05:19.471Z,13.76
2019-02-21T13:07:47.963Z,13.74
2019-02-21T13:10:18.652Z,13.71
2019-02-21T13:12:47.311Z,13.67
2019-02-21T13:15:16.302Z,13.68
2019-02-21T13:17:44.931Z,13.60
2019-02-21T13:20:14.721Z,13.53
2019-02-21T13:22:43.287Z,13.47
2019-02-21T13:25:14.503Z,13.41
2019-02-21T13:27:46.089Z,13.42
2019-02-21T13:30:16.738Z,13.35
2019-02-21T13:32:45.314Z,13.26
2019-02-21T13:35:14.301Z,13.13
2019-02-21T13:37:42.954Z,13.09
2019-02-21T13:40:15.863Z,13.01
2019-02-21T13:42:44.593Z,12.97
2019-02-21T13:45:17.566Z,12.92
2019-02-21T13:47:45.334Z,12.89
2019-02-21T13:50:18.694Z,12.88
2019-02-21T13:52:47.363Z,12.90
2019-02-21T13:55:15.928Z,12.89
2019-02-21T13:57:44.427Z,12.93
2019-02-21T14:00:24.088Z,12.91
2019-02-21T14:02:52.641Z,12.89
2019-02-21T14:05:21.134Z,12.83
2019-02-21T14:07:49.597Z,12.79
2019-02-21T14:10:18.415Z,12.76
2019-02-21T14:12:46.898Z,12.72
2019-02-21T14:15:24.761Z,12.71
2019-02-21T14:17:53.350Z,12.68
2019-02-21T14:20:22.062Z,12.71
2019-02-21T14:22:50.654Z,12.82
2019-02-21T14:25:19.178Z,12.88
2019-02-21T14:27:47.695Z,13.01
2019-02-21T14:30:18.364Z,13.14
2019-02-21T14:32:46.913Z,13.22
2019-02-21T14:35:16.616Z,13.23
2019-02-21T14:37:45.089Z,13.17
2019-02-21T14:40:17.610Z,13.10
2019-02-21T14:42:46.175Z,13.07
2019-02-21T14:45:19.802Z,13.06
2019-02-21T14:47:48.397Z,13.03
2019-02-21T14:50:17.331Z,13.02
2019-02-21T14:52:46.124Z,13.03
2019-02-21T14:55:17.654Z,13.06
2019-02-21T14:57:46.258Z,13.03
2019-02-21T15:00:22.772Z,12.99
2019-02-21T15:02:51.574Z,12.93
2019-02-21T15:05:20.630Z,12.88
2019-02-21T15:07:49.163Z,12.85
2019-02-21T15:10:18.002Z,12.77
2019-02-21T15:12:46.737Z,12.66
2019-02-21T15:15:17.570Z,12.53
2019-02-21T15:17:46.164Z,12.40
2019-02-21T15:20:16.326Z,12.35
2019-02-21T15:22:44.913Z,12.35
2019-02-21T15:25:13.672Z,12.32
2019-02-21T15:27:42.308Z,12.31
2019-02-21T15:30:16.647Z,12.30
2019-02-21T15:32:45.238Z,12.31
2019-02-21T15:35:14.126Z,12.28
2019-02-21T15:37:44.881Z,12.27
2019-02-21T15:40:13.497Z,12.22
2019-02-21T15:42:42.109Z,12.19
2019-02-21T15:45:23.617Z,12.16
2019-02-21T15:47:50.169Z,12.11
2019-02-21T15:50:19.874Z,12.06
2019-02-21T15:52:49.347Z,12.04
2019-02-21T15:55:19.538Z,12.01
2019-02-21T15:57:48.022Z,11.98
2019-02-21T16:00:18.909Z,11.97
2019-02-21T16:02:47.571Z,11.92
2019-02-21T16:05:16.264Z,11.90
2019-02-21T16:07:44.822Z,11.86
2019-02-21T16:10:16.153Z,11.83
2019-02-21T16:12:45.191Z,11.80
2019-02-21T16:15:16.356Z,11.79
2019-02-21T16:17:44.663Z,11.76
2019-02-21T16:20:17.570Z,11.74
2019-02-21T16:22:46.760Z,11.70
2019-02-21T16:25:17.822Z,11.66
2019-02-21T16:27:46.373Z,11.64
2019-02-21T16:30:15.520Z,11.63
2019-02-21T16:32:44.085Z,11.60
2019-02-21T16:35:14.182Z,11.57
2019-02-21T16:37:42.878Z,11.55
2019-02-21T16:40:13.690Z,11.53
2019-02-21T16:42:42.261Z,11.50
2019-02-21T16:45:12.982Z,11.48
2019-02-21T16:47:41.821Z,11.45
2019-02-21T16:50:12.643Z,11.41
2019-02-21T16:52:41.238Z,11.36
2019-02-21T16:55:15.612Z,11.33
2019-02-21T16:57:45.075Z,11.31
2019-02-21T17:00:20.838Z,11.28
2019-02-21T17:02:49.666Z,11.25
2019-02-21T17:05:18.315Z,11.23
2019-02-21T17:07:46.856Z,11.19
2019-02-21T17:10:18.197Z,11.17
2019-02-21T17:12:46.724Z,11.15
2019-02-21T17:15:19.082Z,11.15
2019-02-21T17:17:47.711Z,11.15
2019-02-21T17:20:18.047Z,11.16
2019-02-21T17:22:46.688Z,11.15
2019-02-21T17:25:16.134Z,11.14
2019-02-21T17:27:46.635Z,11.15
2019-02-21T17:30:16.725Z,11.13
2019-02-21T17:32:45.473Z,11.13
2019-02-21T17:35:14.708Z,11.12
2019-02-21T17:37:43.271Z,11.13
2019-02-21T17:40:17.083Z,11.12
2019-02-21T17:42:45.838Z,11.13
2019-02-21T17:45:14.594Z,11.00
2019-02-21T17:47:43.222Z,11.05
2019-02-21T17:50:14.173Z,11.05
2019-02-21T17:52:42.907Z,11.04
2019-02-21T17:55:12.704Z,11.02
2019-02-21T17:57:41.436Z,11.00
2019-02-21T18:00:25.567Z,11.00
2019-02-21T18:02:54.189Z,10.98
2019-02-21T18:05:22.904Z,10.98
2019-02-21T18:07:51.609Z,11.02
2019-02-21T18:10:20.633Z,11.03
2019-02-21T18:12:50.472Z,11.02
2019-02-21T18:15:19.484Z,11.01
2019-02-21T18:17:48.368Z,10.99
2019-02-21T18:20:17.095Z,10.99
2019-02-21T18:22:45.783Z,10.98
2019-02-21T18:25:26.936Z,10.97
2019-02-21T18:27:55.603Z,10.96
2019-02-21T18:30:24.235Z,10.94
2019-02-21T18:32:52.875Z,10.89
2019-02-21T18:35:21.539Z,10.86
2019-02-21T18:37:50.173Z,10.82
2019-02-21T18:40:21.467Z,10.78
2019-02-21T18:42:50.191Z,10.74
2019-02-21T18:45:18.903Z,10.70
2019-02-21T18:47:47.529Z,10.67
2019-02-21T18:50:16.342Z,10.64
2019-02-21T18:52:44.887Z,10.60
2019-02-21T18:55:13.664Z,10.57
2019-02-21T18:57:42.410Z,10.51
2019-02-21T19:00:20.156Z,10.48
2019-02-21T19:02:48.786Z,10.41
2019-02-21T19:05:17.465Z,10.31
2019-02-21T19:07:46.166Z,10.20
2019-02-21T19:10:19.674Z,10.09
2019-02-21T19:12:48.390Z,10.01
2019-02-21T19:15:18.986Z,9.93
2019-02-21T19:17:47.835Z,9.86
2019-02-21T19:20:18.009Z,9.80
2019-02-21T19:22:46.767Z,9.74
2019-02-21T19:25:15.598Z,9.69
2019-02-21T19:27:44.376Z,9.65
2019-02-21T19:30:28.209Z,9.62
2019-02-21T19:32:56.844Z,9.60
2019-02-21T19:35:25.710Z,9.56
2019-02-21T19:37:54.371Z,9.54
2019-02-21T19:40:24.821Z,9.50
2019-02-21T19:42:56.682Z,9.49
2019-02-21T19:45:26.992Z,9.46
2019-02-21T19:47:55.701Z,9.43
2019-02-21T19:50:24.788Z,9.41
2019-02-21T19:52:53.572Z,9.39
2019-02-21T19:55:22.259Z,9.36
2019-02-21T19:57:50.841Z,9.36
2019-02-21T20:00:25.944Z,9.34
2019-02-21T20:02:55.315Z,9.33
2019-02-21T20:05:24.221Z,9.31
2019-02-21T20:07:52.956Z,9.30
2019-02-21T20:10:21.712Z,9.29
2019-02-21T20:12:50.490Z,9.26
2019-02-21T20:15:19.780Z,9.24
2019-02-21T20:17:48.486Z,9.23
2019-02-21T20:20:19.753Z,9.21
2019-02-21T20:22:48.448Z,9.22
2019-02-21T20:25:17.179Z,9.21
2019-02-21T20:27:45.835Z,9.20
2019-02-21T20:30:18.748Z,9.19
2019-02-21T20:32:47.497Z,9.19
2019-02-21T20:35:16.125Z,9.18
2019-02-21T20:37:44.792Z,9.18
2019-02-21T20:40:13.687Z,9.20
2019-02-21T20:42:42.351Z,9.20
2019-02-21T20:45:15.023Z,9.17
2019-02-21T20:47:43.723Z,9.18
2019-02-21T20:50:14.022Z,9.16
2019-02-21T20:52:42.777Z,9.16
2019-02-21T20:55:12.419Z,9.16
2019-02-21T20:57:41.086Z,9.15
2019-02-21T21:00:15.633Z,9.15
2019-02-21T21:02:44.900Z,9.15
2019-02-21T21:05:19.822Z,9.14
2019-02-21T21:07:48.431Z,9.14
2019-02-21T21:10:17.743Z,9.13
2019-02-21T21:12:46.281Z,9.13
2019-02-21T21:15:15.453Z,9.11
2019-02-21T21:17:44.135Z,9.11
2019-02-21T21:20:17.106Z,9.10
2019-02-21T21:22:44.288Z,9.09
2019-02-21T21:25:15.970Z,9.09
2019-02-21T21:27:44.658Z,9.10
2019-02-21T21:30:15.802Z,9.09
2019-02-21T21:32:44.451Z,9.09
2019-02-21T21:35:13.050Z,9.08
2019-02-21T21:37:41.715Z,9.06
2019-02-21T21:40:17.799Z,9.05
2019-02-21T21:42:46.518Z,9.05
2019-02-21T21:45:17.421Z,9.03
2019-02-21T21:47:46.175Z,9.02
2019-02-21T21:50:17.728Z,9.03
2019-02-21T21:52:46.558Z,9.03
2019-02-21T21:55:15.279Z,9.00
2019-02-21T21:57:44.029Z,8.99
2019-02-21T22:00:18.257Z,9.00
2019-02-21T22:02:46.835Z,9.00
2019-02-21T22:05:15.517Z,8.98
2019-02-21T22:07:44.192Z,8.99
2019-02-21T22:10:13.701Z,8.99
2019-02-21T22:12:42.327Z,9.00
2019-02-21T22:15:22.376Z,9.00
2019-02-21T22:17:50.929Z,9.00
2019-02-21T22:20:19.507Z,9.00
2019-02-21T22:22:48.148Z,8.99
2019-02-21T22:25:16.738Z,8.98
2019-02-21T22:27:45.473Z,8.98
2019-02-21T22:30:20.772Z,8.99
2019-02-21T22:32:49.453Z,8.96
2019-02-21T22:35:18.041Z,8.96
2019-02-21T22:37:46.592Z,8.96
2019-02-21T22:40:20.043Z,8.96
2019-02-21T22:42:48.673Z,8.95
2019-02-21T22:45:17.260Z,8.94
2019-02-21T22:47:45.765Z,8.93
2019-02-21T22:50:16.057Z,8.94
2019-02-21T22:52:44.673Z,8.93
2019-02-21T22:55:13.444Z,8.92
2019-02-21T22:57:42.240Z,8.92
2019-02-21T23:00:36.657Z,8.92
2019-02-21T23:03:09.005Z,8.93
2019-02-21T23:06:02.961Z,8.90
2019-02-21T23:08:45.110Z,8.90
2019-02-21T23:11:13.754Z,8.89
2019-02-21T23:13:42.741Z,8.88
2019-02-21T23:16:11.431Z,8.91
2019-02-21T23:18:40.784Z,8.85
2019-02-21T23:21:09.487Z,8.90
2019-02-21T23:23:38.117Z,8.90
2019-02-21T23:26:06.649Z,8.91
2019-02-21T23:28:35.265Z,8.91
2019-02-21T23:31:03.941Z,8.91
2019-02-21T23:33:34.399Z,8.90
2019-02-21T23:36:03.070Z,8.90
2019-02-21T23:38:32.054Z,8.89
2019-02-21T23:41:00.527Z,8.91
2019-02-21T23:43:29.154Z,8.91
2019-02-21T23:45:58.045Z,8.90
2019-02-21T23:48:26.599Z,8.89
2019-02-21T23:50:55.208Z,8.90
2019-02-21T23:53:23.724Z,8.89
2019-02-21T23:55:52.263Z,8.89
2019-02-21T23:58:20.790Z,8.90
